createdAt,value
2022-11-12T00:00:53.085Z,37.40
2022-11-12T00:03:20.403Z,36.85
2022-11-12T00:05:49.362Z,36.65
2022-11-12T00:08:16.488Z,38.35
2022-11-12T00:10:43.451Z,37.67
2022-11-12T00:13:10.139Z,37.20
2022-11-12T00:15:36.870Z,36.70
2022-11-12T00:18:04.088Z,36.58
2022-11-12T00:20:30.838Z,36.55
2022-11-12T00:22:57.529Z,37.58
2022-11-12T00:25:24.508Z,35.67
2022-11-12T00:27:51.221Z,36.78
2022-11-12T00:30:18.073Z,36.88
2022-11-12T00:32:45.068Z,35.92
2022-11-12T00:35:13.884Z,35.58
2022-11-12T00:37:40.811Z,35.63
2022-11-12T00:40:09.618Z,36.67
2022-11-12T00:42:36.362Z,36.20
2022-11-12T00:45:03.322Z,34.88
2022-11-12T00:47:30.130Z,36.72
2022-11-12T00:49:56.830Z,35.47
2022-11-12T00:52:23.503Z,35.70
2022-11-12T00:54:50.357Z,36.50
2022-11-12T00:57:17.144Z,35.15
2022-11-12T00:59:43.878Z,35.83
2022-11-12T01:02:10.617Z,35.83
2022-11-12T01:04:37.342Z,38.55
2022-11-12T01:07:04.076Z,41.83
2022-11-12T01:09:31.086Z,41.03
2022-11-12T01:11:57.749Z,39.78
2022-11-12T01:14:24.466Z,40.78
2022-11-12T01:16:51.367Z,38.30
2022-11-12T01:19:18.140Z,41.80
2022-11-12T01:21:44.954Z,37.92
2022-11-12T01:24:12.006Z,38.15
2022-11-12T01:26:39.163Z,37.45
2022-11-12T01:29:06.389Z,35.47
2022-11-12T01:31:36.050Z,34.85
2022-11-12T01:34:08.983Z,38.17
2022-11-12T01:36:40.178Z,39.05
2022-11-12T01:39:08.830Z,38.90
2022-11-12T01:41:38.774Z,40.05
2022-11-12T01:44:15.128Z,37.38
2022-11-12T01:47:13.214Z,37.30
2022-11-12T01:49:56.823Z,39.00
2022-11-12T01:52:26.911Z,38.92
2022-11-12T01:54:57.051Z,34.80
2022-11-12T01:57:39.417Z,33.97
2022-11-12T02:00:10.804Z,33.88
2022-11-12T02:02:38.547Z,34.90
2022-11-12T02:05:08.654Z,31.52
2022-11-12T02:07:39.669Z,29.83
2022-11-12T02:10:08.841Z,31.65
2022-11-12T02:12:54.620Z,31.85
2022-11-12T02:15:21.255Z,28.67
2022-11-12T02:17:48.114Z,29.70
2022-11-12T02:20:15.322Z,31.15
2022-11-12T02:22:42.025Z,32.47
2022-11-12T02:25:16.519Z,31.38
2022-11-12T02:27:44.360Z,31.95
2022-11-12T02:30:12.091Z,31.25
2022-11-12T02:32:38.777Z,34.10
2022-11-12T02:35:05.883Z,33.70
2022-11-12T02:37:32.583Z,34.03
2022-11-12T02:39:59.750Z,33.47
2022-11-12T02:42:26.434Z,33.53
2022-11-12T02:44:53.298Z,34.55
2022-11-12T02:47:20.075Z,39.15
2022-11-12T02:49:46.791Z,38.55
2022-11-12T02:52:13.477Z,37.88
2022-11-12T02:54:40.555Z,37.58
2022-11-12T02:57:07.250Z,36.22
2022-11-12T02:59:33.934Z,36.30
2022-11-12T03:02:00.623Z,36.42
2022-11-12T03:04:27.268Z,36.47
2022-11-12T03:06:53.924Z,34.97
2022-11-12T03:09:20.648Z,31.98
2022-11-12T03:11:47.337Z,30.33
2022-11-12T03:14:14.375Z,31.85
2022-11-12T03:16:41.201Z,30.77
2022-11-12T03:19:08.029Z,29.90
2022-11-12T03:21:34.688Z,28.15
2022-11-12T03:24:02.496Z,30.23
2022-11-12T03:26:34.526Z,29.83
2022-11-12T03:29:02.472Z,30.60
2022-11-12T03:31:29.407Z,29.50
2022-11-12T03:33:56.245Z,31.95
2022-11-12T03:36:22.864Z,33.08
2022-11-12T03:38:49.546Z,33.08
2022-11-12T03:41:16.227Z,32.25
2022-11-12T03:43:42.919Z,33.45
2022-11-12T03:46:09.704Z,33.28
2022-11-12T03:48:36.403Z,33.20
2022-11-12T03:51:03.094Z,32.95
2022-11-12T03:53:29.781Z,32.97
2022-11-12T03:55:56.443Z,32.67
2022-11-12T03:58:23.222Z,31.50
2022-11-12T04:00:50.045Z,31.45
2022-11-12T04:03:16.854Z,32.72
2022-11-12T04:06:02.306Z,30.70
2022-11-12T04:08:38.179Z,30.33
2022-11-12T04:11:10.177Z,29.65
2022-11-12T04:13:38.474Z,31.90
2022-11-12T04:16:29.742Z,30.27
2022-11-12T04:19:16.748Z,30.25
2022-11-12T04:21:51.688Z,28.90
2022-11-12T04:24:52.551Z,28.40
2022-11-12T04:27:21.707Z,26.40
2022-11-12T04:30:07.970Z,27.27
2022-11-12T04:32:37.153Z,27.85
2022-11-12T04:35:05.221Z,28.67
2022-11-12T04:37:44.371Z,28.30
2022-11-12T04:40:35.768Z,27.90
2022-11-12T04:43:23.309Z,28.05
2022-11-12T04:45:52.572Z,28.45
2022-11-12T04:48:20.604Z,29.25
2022-11-12T04:50:50.591Z,28.30
2022-11-12T04:53:17.244Z,29.30
2022-11-12T04:55:44.009Z,29.45
2022-11-12T04:58:11.065Z,29.92
2022-11-12T05:00:37.759Z,31.00
2022-11-12T05:03:04.471Z,32.17
2022-11-12T05:05:34.023Z,33.45
2022-11-12T05:08:02.212Z,29.75
2022-11-12T05:10:29.414Z,31.30
2022-11-12T05:12:56.168Z,31.20
2022-11-12T05:15:23.037Z,30.80
2022-11-12T05:17:49.719Z,30.30
2022-11-12T05:20:18.247Z,30.83
2022-11-12T05:22:54.493Z,29.85
2022-11-12T05:25:31.783Z,27.63
2022-11-12T05:27:58.467Z,29.77
2022-11-12T05:30:25.172Z,31.42
2022-11-12T05:32:51.885Z,28.95
2022-11-12T05:35:18.531Z,28.42
2022-11-12T05:37:45.216Z,28.35
2022-11-12T05:40:12.502Z,30.25
2022-11-12T05:42:39.138Z,29.60
2022-11-12T05:45:06.635Z,29.33
2022-11-12T05:47:33.315Z,28.98
2022-11-12T05:49:59.944Z,28.55
2022-11-12T05:52:26.732Z,28.70
2022-11-12T05:54:53.395Z,26.67
2022-11-12T05:57:20.092Z,27.88
2022-11-12T05:59:46.833Z,25.10
2022-11-12T06:02:13.712Z,26.55
2022-11-12T06:04:40.491Z,24.17
2022-11-12T06:07:07.268Z,25.60
2022-11-12T06:09:34.139Z,25.40
2022-11-12T06:12:02.501Z,25.38
2022-11-12T06:14:29.206Z,24.67
2022-11-12T06:16:56.108Z,24.92
2022-11-12T06:19:22.744Z,23.95
2022-11-12T06:21:49.781Z,26.67
2022-11-12T06:24:17.026Z,24.13
2022-11-12T06:26:43.680Z,25.27
2022-11-12T06:29:10.450Z,25.00
2022-11-12T06:31:37.152Z,24.27
2022-11-12T06:34:03.848Z,24.58
2022-11-12T06:36:30.574Z,22.88
2022-11-12T06:38:57.387Z,24.15
2022-11-12T06:41:24.138Z,23.38
2022-11-12T06:43:50.773Z,22.38
2022-11-12T06:46:18.168Z,23.45
2022-11-12T06:48:44.899Z,23.27
2022-11-12T06:51:19.814Z,22.52
2022-11-12T06:53:47.310Z,19.73
2022-11-12T06:56:14.641Z,18.90
2022-11-12T06:58:42.108Z,18.75
2022-11-12T07:01:14.665Z,19.25
2022-11-12T07:03:42.280Z,19.48
2022-11-12T07:06:11.907Z,18.50
2022-11-12T07:08:39.452Z,18.67
2022-11-12T07:11:06.921Z,17.85
2022-11-12T07:13:35.515Z,18.85
2022-11-12T07:16:03.910Z,17.30
2022-11-12T07:18:30.821Z,18.00
2022-11-12T07:21:01.942Z,17.48
2022-11-12T07:23:31.389Z,17.63
2022-11-12T07:26:07.141Z,17.17
2022-11-12T07:28:34.213Z,17.48
2022-11-12T07:31:03.227Z,16.95
2022-11-12T07:33:30.938Z,16.90
2022-11-12T07:36:02.507Z,16.67
2022-11-12T07:38:30.659Z,17.02
2022-11-12T07:41:06.386Z,15.65
2022-11-12T07:43:34.844Z,16.80
2022-11-12T07:46:11.168Z,16.40
2022-11-12T07:48:38.899Z,16.17
2022-11-12T07:51:07.891Z,16.40
2022-11-12T07:53:34.590Z,16.38
2022-11-12T07:56:02.250Z,15.80
2022-11-12T07:58:31.878Z,15.07
2022-11-12T08:00:59.359Z,14.38
2022-11-12T08:03:26.525Z,13.98
2022-11-12T08:05:53.428Z,13.25
2022-11-12T08:08:20.126Z,14.25
2022-11-12T08:10:46.762Z,13.75
2022-11-12T08:13:13.480Z,12.82
2022-11-12T08:15:40.146Z,11.77
2022-11-12T08:18:06.896Z,12.13
2022-11-12T08:20:33.738Z,11.48
2022-11-12T08:23:01.028Z,10.65
2022-11-12T08:25:28.177Z,10.48
2022-11-12T08:27:59.388Z,9.40
2022-11-12T08:30:27.530Z,9.98
2022-11-12T08:33:03.235Z,9.80
2022-11-12T08:35:31.105Z,8.63
2022-11-12T08:38:07.792Z,8.07
2022-11-12T08:40:35.473Z,7.95
2022-11-12T08:43:10.210Z,8.13
2022-11-12T08:45:40.234Z,7.53
2022-11-12T08:48:13.858Z,7.60
2022-11-12T08:50:41.589Z,7.32
2022-11-12T08:53:11.136Z,7.03
2022-11-12T08:55:38.581Z,7.20
2022-11-12T08:58:06.263Z,6.57
2022-11-12T09:00:35.704Z,6.53
2022-11-12T09:03:04.469Z,6.57
2022-11-12T09:05:31.523Z,6.55
2022-11-12T09:07:59.554Z,5.78
2022-11-12T09:10:27.942Z,6.75
2022-11-12T09:12:55.413Z,6.40
2022-11-12T09:15:36.794Z,6.88
2022-11-12T09:18:07.501Z,6.25
2022-11-12T09:20:34.610Z,7.18
2022-11-12T09:23:04.746Z,6.72
2022-11-12T09:25:31.842Z,6.65
2022-11-12T09:27:58.509Z,7.20
2022-11-12T09:30:25.251Z,7.60
2022-11-12T09:32:58.044Z,7.20
2022-11-12T09:35:24.835Z,7.82
2022-11-12T09:37:51.543Z,8.27
2022-11-12T09:40:19.745Z,7.72
2022-11-12T09:42:55.932Z,7.80
2022-11-12T09:45:32.630Z,8.50
2022-11-12T09:48:05.595Z,7.95
2022-11-12T09:50:37.961Z,7.65
2022-11-12T09:53:38.011Z,8.05
2022-11-12T09:56:10.730Z,7.07
2022-11-12T09:58:37.666Z,7.47
2022-11-12T10:01:17.097Z,7.25
2022-11-12T10:03:55.893Z,7.10
2022-11-12T10:06:27.876Z,7.00
2022-11-12T10:09:13.765Z,7.63
2022-11-12T10:14:34.917Z,7.75
2022-11-12T10:17:32.128Z,7.30
2022-11-12T10:20:20.923Z,6.57
2022-11-12T10:23:04.835Z,6.97
2022-11-12T10:25:32.388Z,7.00
2022-11-12T10:28:01.967Z,7.03
2022-11-12T10:30:28.791Z,7.22
2022-11-12T10:32:55.535Z,6.70
2022-11-12T10:35:23.828Z,7.10
2022-11-12T10:38:04.526Z,7.13
2022-11-12T10:40:38.470Z,6.80
2022-11-12T10:43:17.559Z,6.22
2022-11-12T10:45:45.836Z,6.97
2022-11-12T10:48:27.607Z,6.25
2022-11-12T10:50:55.055Z,6.82
2022-11-12T10:53:48.214Z,6.40
2022-11-12T10:56:28.363Z,6.38
2022-11-12T10:59:15.353Z,5.95
2022-11-12T11:01:45.903Z,6.18
2022-11-12T11:04:22.679Z,5.53
2022-11-12T11:06:58.568Z,5.05
2022-11-12T11:09:26.154Z,5.28
2022-11-12T11:11:54.132Z,6.05
2022-11-12T11:14:23.850Z,7.38
2022-11-12T11:16:55.091Z,6.13
2022-11-12T11:19:22.009Z,7.03
2022-11-12T11:21:48.665Z,5.43
2022-11-12T11:24:47.913Z,5.72
2022-11-12T11:27:40.912Z,5.80
2022-11-12T11:30:18.149Z,6.45
2022-11-12T11:33:13.880Z,5.43
2022-11-12T11:36:16.251Z,5.18
2022-11-12T11:39:01.310Z,5.47
2022-11-12T11:41:49.097Z,6.00
2022-11-12T11:44:33.766Z,5.80
2022-11-12T11:47:12.593Z,5.43
2022-11-12T11:50:19.285Z,6.10
2022-11-12T11:53:33.586Z,6.72
2022-11-12T11:56:13.153Z,6.75
2022-11-12T11:59:02.873Z,7.07
2022-11-12T12:01:50.319Z,7.78
2022-11-12T12:04:44.881Z,7.70
2022-11-12T12:07:38.900Z,6.93
2022-11-12T12:10:11.958Z,7.32
2022-11-12T12:13:05.199Z,8.57
2022-11-12T12:15:54.361Z,8.15
2022-11-12T12:18:48.229Z,9.63
2022-11-12T12:21:17.821Z,9.00
2022-11-12T12:24:09.624Z,8.48
2022-11-12T12:26:54.020Z,8.98
2022-11-12T12:29:28.778Z,10.13
2022-11-12T12:32:37.274Z,9.63
2022-11-12T12:35:23.622Z,10.32
2022-11-12T12:38:11.138Z,10.50
2022-11-12T12:40:44.841Z,11.05
2022-11-12T12:43:22.450Z,12.60
2022-11-12T12:45:49.254Z,12.38
2022-11-12T12:48:20.186Z,13.10
2022-11-12T12:50:48.483Z,11.80
2022-11-12T12:53:15.204Z,13.20
2022-11-12T12:55:43.114Z,13.10
2022-11-12T12:58:33.168Z,13.23
2022-11-12T13:01:14.311Z,14.57
2022-11-12T13:03:44.149Z,15.77
2022-11-12T13:06:22.828Z,15.73
2022-11-12T13:08:56.680Z,17.83
2022-11-12T13:11:59.767Z,17.05
2022-11-12T13:14:49.836Z,17.08
2022-11-12T13:17:44.149Z,18.27
2022-11-12T13:20:18.391Z,18.58
2022-11-12T13:22:45.018Z,18.60
2022-11-12T13:25:11.650Z,19.17
2022-11-12T13:27:44.462Z,18.88
2022-11-12T13:30:14.001Z,18.35
2022-11-12T13:32:47.263Z,17.95
2022-11-12T13:35:22.598Z,19.92
2022-11-12T13:37:52.094Z,19.55
2022-11-12T13:40:30.646Z,20.67
2022-11-12T13:43:16.893Z,21.42
2022-11-12T13:46:11.086Z,21.00
2022-11-12T13:48:58.154Z,20.92
2022-11-12T13:51:34.137Z,20.33
2022-11-12T13:54:01.844Z,20.40
2022-11-12T13:56:31.661Z,21.25
2022-11-12T13:59:15.886Z,22.23
2022-11-12T14:01:43.580Z,21.98
2022-11-12T14:04:26.861Z,22.35
2022-11-12T14:07:24.331Z,23.30
2022-11-12T14:09:59.885Z,22.70
2022-11-12T14:12:50.851Z,23.42
2022-11-12T14:15:55.522Z,22.98
2022-11-12T14:18:43.335Z,23.38
2022-11-12T14:21:18.090Z,23.05
2022-11-12T14:23:47.584Z,25.77
2022-11-12T14:26:32.964Z,26.17
2022-11-12T14:29:00.096Z,24.40
2022-11-12T14:31:26.774Z,24.23
2022-11-12T14:33:53.461Z,24.42
2022-11-12T14:36:20.953Z,23.63
2022-11-12T14:38:58.893Z,22.45
2022-11-12T14:41:35.178Z,21.75
2022-11-12T14:44:13.044Z,23.05
2022-11-12T14:46:49.837Z,23.08
2022-11-12T14:49:40.632Z,22.73
2022-11-12T14:52:20.857Z,22.05
2022-11-12T14:54:54.828Z,22.45
2022-11-12T14:57:27.806Z,23.60
2022-11-12T14:59:55.663Z,21.60
2022-11-12T15:02:42.289Z,22.80
2022-11-12T15:05:16.995Z,22.83
2022-11-12T15:08:03.603Z,21.88
2022-11-12T15:10:34.978Z,22.65
2022-11-12T15:13:15.583Z,23.25
2022-11-12T15:16:11.773Z,24.00
2022-11-12T15:18:39.768Z,23.73
2022-11-12T15:21:12.747Z,23.98
2022-11-12T15:23:50.882Z,24.13
2022-11-12T15:26:31.447Z,25.48
2022-11-12T15:28:59.998Z,25.67
2022-11-12T15:31:26.681Z,25.98
2022-11-12T15:33:53.585Z,25.83
2022-11-12T15:36:22.592Z,25.67
2022-11-12T15:38:54.173Z,25.70
2022-11-12T15:41:28.064Z,27.02
2022-11-12T15:43:55.145Z,26.80
2022-11-12T15:46:22.194Z,27.08
2022-11-12T15:48:54.536Z,26.90
2022-11-12T15:51:22.669Z,26.98
2022-11-12T15:53:49.310Z,30.00
2022-11-12T15:56:19.181Z,29.75
2022-11-12T15:58:45.968Z,27.25
2022-11-12T16:01:12.866Z,28.52
2022-11-12T16:03:39.801Z,27.65
2022-11-12T16:06:09.293Z,26.55
2022-11-12T16:08:36.330Z,28.02
2022-11-12T16:11:03.484Z,27.05
2022-11-12T16:13:36.072Z,25.48
2022-11-12T16:16:06.252Z,27.95
2022-11-12T16:18:32.967Z,25.77
2022-11-12T16:20:59.625Z,25.75
2022-11-12T16:23:26.494Z,26.67
2022-11-12T16:25:53.414Z,26.30
2022-11-12T16:28:20.326Z,25.90
2022-11-12T16:30:47.863Z,27.17
2022-11-12T16:33:14.651Z,26.13
2022-11-12T16:35:41.919Z,27.23
2022-11-12T16:38:16.416Z,25.30
2022-11-12T16:40:44.626Z,24.85
2022-11-12T16:43:11.774Z,25.30
2022-11-12T16:45:40.860Z,24.52
2022-11-12T16:48:17.172Z,24.23
2022-11-12T16:50:43.895Z,24.95
2022-11-12T16:53:10.624Z,25.98
2022-11-12T16:55:37.386Z,24.98
2022-11-12T16:58:04.028Z,25.77
2022-11-12T17:00:30.854Z,26.40
2022-11-12T17:02:57.846Z,25.70
2022-11-12T17:05:25.788Z,25.60
2022-11-12T17:07:57.162Z,25.10
2022-11-12T17:10:24.254Z,24.50
2022-11-12T17:12:53.998Z,23.20
2022-11-12T17:15:20.853Z,23.77
2022-11-12T17:17:47.756Z,24.10
2022-11-12T17:20:14.449Z,24.48
2022-11-12T17:22:41.138Z,23.65
2022-11-12T17:25:08.538Z,22.88
2022-11-12T17:27:35.351Z,24.48
2022-11-12T17:30:03.110Z,24.85
2022-11-12T17:32:30.107Z,23.95
2022-11-12T17:34:56.906Z,24.55
2022-11-12T17:37:23.660Z,23.52
2022-11-12T17:39:50.786Z,23.83
2022-11-12T17:42:17.428Z,23.38
2022-11-12T17:44:46.161Z,22.90
2022-11-12T17:47:12.902Z,23.98
2022-11-12T17:49:39.644Z,24.92
2022-11-12T17:52:06.288Z,25.60
2022-11-12T17:54:33.274Z,25.70
2022-11-12T17:57:00.036Z,25.15
2022-11-12T17:59:26.668Z,24.92
2022-11-12T18:01:53.376Z,26.50
2022-11-12T18:04:23.386Z,24.80
2022-11-12T18:06:50.490Z,26.33
2022-11-12T18:09:17.394Z,25.95
2022-11-12T18:11:50.230Z,27.77
2022-11-12T18:14:17.024Z,28.25
2022-11-12T18:16:44.192Z,28.25
2022-11-12T18:19:11.272Z,28.27
2022-11-12T18:21:39.828Z,26.63
2022-11-12T18:24:11.729Z,27.63
2022-11-12T18:26:39.018Z,26.65
2022-11-12T18:29:05.740Z,25.83
2022-11-12T18:31:32.650Z,28.65
2022-11-12T18:33:59.306Z,28.15
2022-11-12T18:36:26.664Z,29.90
2022-11-12T18:38:54.646Z,29.70
2022-11-12T18:41:26.830Z,28.65
2022-11-12T18:43:54.758Z,28.30
2022-11-12T18:46:22.486Z,30.60
2022-11-12T18:48:49.934Z,29.60
2022-11-12T18:51:18.461Z,29.13
2022-11-12T18:53:46.213Z,30.60
2022-11-12T18:56:20.323Z,28.70
2022-11-12T18:58:47.761Z,30.13
2022-11-12T19:01:16.765Z,29.33
2022-11-12T19:03:44.084Z,29.85
2022-11-12T19:06:14.710Z,29.77
2022-11-12T19:08:41.808Z,29.92
2022-11-12T19:11:11.252Z,29.85
2022-11-12T19:13:38.640Z,28.80
2022-11-12T19:16:08.007Z,29.83
2022-11-12T19:18:34.823Z,30.48
2022-11-12T19:21:07.042Z,29.15
2022-11-12T19:23:34.041Z,28.77
2022-11-12T19:26:01.757Z,29.60
2022-11-12T19:28:29.195Z,28.95
2022-11-12T19:30:56.216Z,28.95
2022-11-12T19:33:23.421Z,30.73
2022-11-12T19:35:50.165Z,29.25
2022-11-12T19:38:16.849Z,28.70
2022-11-12T19:40:43.502Z,30.48
2022-11-12T19:43:10.298Z,31.52
2022-11-12T19:45:36.975Z,29.77
2022-11-12T19:48:04.374Z,30.67
2022-11-12T19:50:33.257Z,29.42
2022-11-12T19:53:00.358Z,31.45
2022-11-12T19:55:28.975Z,31.55
2022-11-12T19:57:55.810Z,30.85
2022-11-12T20:00:22.552Z,30.80
2022-11-12T20:02:49.365Z,30.30
2022-11-12T20:05:16.335Z,29.48
2022-11-12T20:07:43.148Z,30.67
2022-11-12T20:10:10.034Z,29.85
2022-11-12T20:12:38.902Z,30.02
2022-11-12T20:15:06.384Z,30.77
2022-11-12T20:17:33.611Z,30.48
2022-11-12T20:20:00.739Z,30.40
2022-11-12T20:22:32.322Z,31.15
2022-11-12T20:24:59.513Z,33.40
2022-11-12T20:27:26.509Z,34.08
2022-11-12T20:29:53.231Z,34.03
2022-11-12T20:32:21.788Z,34.13
2022-11-12T20:34:48.616Z,34.15
2022-11-12T20:37:15.265Z,36.20
2022-11-12T20:39:41.925Z,35.55
2022-11-12T20:42:08.626Z,36.30
2022-11-12T20:44:35.340Z,37.33
2022-11-12T20:47:02.074Z,36.70
2022-11-12T20:49:28.838Z,38.67
2022-11-12T20:51:55.456Z,37.38
2022-11-12T20:54:22.176Z,38.05
2022-11-12T20:56:50.632Z,37.00
2022-11-12T20:59:17.367Z,38.45
2022-11-12T21:01:44.234Z,36.47
2022-11-12T21:04:12.428Z,38.45
2022-11-12T21:06:39.271Z,37.75
2022-11-12T21:09:06.551Z,36.58
2022-11-12T21:11:33.591Z,35.95
2022-11-12T21:14:01.096Z,36.72
2022-11-12T21:16:27.852Z,37.35
2022-11-12T21:18:54.598Z,36.45
2022-11-12T21:21:21.625Z,38.33
2022-11-12T21:23:51.447Z,39.33
2022-11-12T21:26:22.846Z,40.65
2022-11-12T21:28:54.562Z,38.85
2022-11-12T21:31:27.230Z,39.40
2022-11-12T21:33:58.131Z,38.00
2022-11-12T21:36:27.592Z,37.25
2022-11-12T21:38:54.435Z,36.83
2022-11-12T21:41:23.466Z,37.92
2022-11-12T21:43:50.733Z,37.60
2022-11-12T21:46:18.907Z,35.53
2022-11-12T21:48:49.002Z,36.35
2022-11-12T21:51:22.338Z,36.03
2022-11-12T21:53:57.194Z,35.08
2022-11-12T21:56:25.072Z,36.13
2022-11-12T21:58:53.695Z,35.65
2022-11-12T22:01:23.030Z,34.38
2022-11-12T22:03:51.290Z,34.75
2022-11-12T22:06:19.392Z,34.90
2022-11-12T22:08:46.572Z,35.97
2022-11-12T22:11:16.156Z,36.15
2022-11-12T22:13:42.945Z,35.25
2022-11-12T22:16:20.969Z,34.95
2022-11-12T22:18:49.833Z,34.53
2022-11-12T22:21:19.465Z,33.25
2022-11-12T22:23:46.461Z,33.10
2022-11-12T22:26:16.059Z,35.50
2022-11-12T22:28:42.935Z,34.08
2022-11-12T22:31:24.426Z,34.17
2022-11-12T22:33:51.113Z,35.60
2022-11-12T22:36:20.887Z,34.40
2022-11-12T22:38:49.871Z,34.25
2022-11-12T22:41:22.214Z,32.78
2022-11-12T22:43:55.816Z,33.30
2022-11-12T22:46:24.900Z,33.95
2022-11-12T22:48:52.148Z,32.30
2022-11-12T22:51:23.729Z,33.05
2022-11-12T22:53:55.119Z,32.70
2022-11-12T22:56:22.519Z,32.40
2022-11-12T22:58:49.467Z,32.95
2022-11-12T23:01:29.167Z,32.70
2022-11-12T23:03:58.609Z,32.25
2022-11-12T23:06:26.672Z,32.55
2022-11-12T23:08:54.386Z,32.35
2022-11-12T23:11:21.792Z,32.90
2022-11-12T23:13:49.179Z,32.15
2022-11-12T23:16:18.699Z,32.55
2022-11-12T23:18:45.756Z,31.77
2022-11-12T23:21:18.059Z,32.92
2022-11-12T23:23:45.044Z,33.67
2022-11-12T23:26:21.020Z,31.85
2022-11-12T23:28:47.943Z,33.10
2022-11-12T23:31:20.646Z,32.20
2022-11-12T23:33:50.092Z,32.38
2022-11-12T23:36:17.617Z,33.33
2022-11-12T23:38:44.889Z,31.88
2022-11-12T23:41:14.375Z,31.10
2022-11-12T23:43:41.050Z,30.52
2022-11-12T23:46:08.032Z,32.65
2022-11-12T23:48:34.745Z,30.80
2022-11-12T23:51:13.342Z,30.92
2022-11-12T23:53:40.909Z,29.83
2022-11-12T23:56:09.939Z,28.85
2022-11-12T23:58:38.390Z,30.50
